createdAt,value
2022-11-22T00:05:21.848Z,50.67
2022-11-22T00:20:23.743Z,49.78
2022-11-22T00:35:25.625Z,52.92
2022-11-22T00:50:27.476Z,44.55
2022-11-22T01:05:29.370Z,41.30
2022-11-22T01:20:31.698Z,43.08
2022-11-22T01:35:33.594Z,42.22
2022-11-22T01:50:38.065Z,42.35
2022-11-22T02:05:40.190Z,46.75
2022-11-22T02:20:42.324Z,45.28
2022-11-22T02:35:45.170Z,54.05
2022-11-22T02:50:47.456Z,59.00
2022-11-22T03:05:49.314Z,50.65
2022-11-22T03:20:51.251Z,62.88
2022-11-22T03:35:59.586Z,58.70
2022-11-22T03:51:07.601Z,65.10
2022-11-22T04:06:09.445Z,68.50
2022-11-22T04:21:29.726Z,63.95
2022-11-22T04:36:31.538Z,64.78
2022-11-22T04:51:52.758Z,70.47
2022-11-22T05:06:56.797Z,69.75
2022-11-22T05:21:58.664Z,68.03
2022-11-22T05:37:00.591Z,67.13
2022-11-22T05:52:03.197Z,68.50
2022-11-22T06:07:09.753Z,56.45
2022-11-22T06:22:12.012Z,57.90
2022-11-22T06:37:17.020Z,54.47
2022-11-22T06:52:18.894Z,56.15
2022-11-22T07:07:20.804Z,53.00
2022-11-22T07:22:22.785Z,58.45
2022-11-22T07:37:24.713Z,67.50
2022-11-22T07:52:26.529Z,80.70
2022-11-22T08:07:28.447Z,87.65
2022-11-22T08:22:30.359Z,68.88
2022-11-22T08:37:32.368Z,66.55
2022-11-22T08:52:34.820Z,65.43
2022-11-22T09:23:01.908Z,74.15
2022-11-22T09:38:03.790Z,89.57
2022-11-22T09:53:17.189Z,87.32
2022-11-22T10:08:31.298Z,96.85
2022-11-22T10:23:34.022Z,88.00
2022-11-22T10:38:47.481Z,90.10
2022-11-22T10:54:03.705Z,87.28
2022-11-22T11:24:41.514Z,83.15
2022-11-22T11:39:46.791Z,88.22
2022-11-22T11:54:52.910Z,85.18
2022-11-22T12:09:56.145Z,82.82
2022-11-22T12:25:31.067Z,98.68
2022-11-22T12:40:31.783Z,90.90
2022-11-22T12:56:11.661Z,93.97
2022-11-22T13:11:35.685Z,90.38
2022-11-22T13:27:10.641Z,93.28
2022-11-22T13:42:18.326Z,96.85
2022-11-22T13:57:49.705Z,88.60
2022-11-22T14:13:28.765Z,95.95
2022-11-22T14:28:49.181Z,86.57
2022-11-22T14:43:55.009Z,93.80
2022-11-22T14:59:31.091Z,87.43
2022-11-22T15:14:51.261Z,98.80
2022-11-22T16:01:18.325Z,98.40
2022-11-22T16:16:31.606Z,93.43
2022-11-22T16:31:34.868Z,103.13
2022-11-22T16:46:36.774Z,89.85
2022-11-22T17:01:42.829Z,95.35
2022-11-22T17:16:48.538Z,93.72
2022-11-22T17:31:50.464Z,98.85
2022-11-22T17:46:52.349Z,99.28
2022-11-22T18:01:54.256Z,88.80
2022-11-22T18:16:56.401Z,94.40
2022-11-22T18:31:58.794Z,109.43
2022-11-22T18:47:00.723Z,109.50
2022-11-22T19:02:02.610Z,98.32
2022-11-22T19:17:05.085Z,87.78
2022-11-22T19:32:07.058Z,87.57
2022-11-22T19:47:09.224Z,97.13
2022-11-22T20:02:12.827Z,85.03
2022-11-22T20:17:14.741Z,114.40
2022-11-22T20:32:16.696Z,111.90
2022-11-22T20:47:18.602Z,98.80
2022-11-22T21:02:20.491Z,150.65
2022-11-22T21:17:39.758Z,127.07
2022-11-22T21:32:44.783Z,119.88
2022-11-22T21:47:48.413Z,105.97
2022-11-22T22:02:50.266Z,114.50
2022-11-22T22:17:55.108Z,120.53
2022-11-22T22:32:57.996Z,128.93
2022-11-22T22:47:59.885Z,123.65
2022-11-22T23:03:01.808Z,131.90
2022-11-22T23:18:03.732Z,127.57
2022-11-22T23:33:05.620Z,117.50
2022-11-22T23:48:07.485Z,142.20
